Lake McCoy, Indiana
Current Conditions -  °F | °C
As of 1:50 PM on Saturday 25 Oct 2014 (Local Time) from KBAK Reporting Station
Clear Clear  
Wind Chill: 72°   Ceiling: Unl
Heat Index: 72°   Visibility: 10mi
Dew Point: 57°   Wind: 5mph
Humidity: 60%   Direction: 260°W
Pressure: 29.95"   Gusts: NA
Location:  39.3206°N, 85.4768°W
Report Text: KBAK 251750Z 26004KT 10SM SKC 22/14 A2995
Loading
Personal Weather Stations






























Interactive Weather Map
Tropical Storm Tracking
New forecast layout! Learn more

10-Day Weather Forecast

Advertisements
Track Severe Weather on mobile